Rhodes Point, Maryland
Current Conditions -  °F | °C
As of 4:58 AM on Sunday 21 Dec 2014 (Local Time) from KTGI Reporting Station
Overcast Overcast  
Wind Chill: 37°   Ceiling: 7000
Heat Index: 37°   Visibility: 10mi
Dew Point: 28°   Wind: 3mph
Humidity: 70%   Direction: 360°N
Pressure: 30.3"   Gusts: NA
Location:  38.0048°N, 75.999°W
Report Text: KTGI 210958Z AUTO 36003KT 10SM OVC070 03/M02 A3030 RMK AO1
Loading
Personal Weather Stations






























Interactive Weather Map New forecast layout! Learn more

10-Day Weather Forecast

Advertisements
Track Severe Weather on mobile